createdAt,value
2023-03-18T00:00:47.857Z,14.80
2023-03-18T00:03:15.820Z,14.47
2023-03-18T00:05:43.077Z,14.13
2023-03-18T00:08:10.678Z,13.00
2023-03-18T00:10:38.041Z,13.47
2023-03-18T00:13:05.373Z,13.80
2023-03-18T00:15:32.571Z,13.33
2023-03-18T00:17:59.857Z,13.77
2023-03-18T00:20:38.719Z,13.67
2023-03-18T00:23:08.630Z,14.17
2023-03-18T00:25:36.787Z,13.90
2023-03-18T00:28:09.806Z,14.40
2023-03-18T00:30:39.356Z,13.57
2023-03-18T00:33:07.095Z,13.67
2023-03-18T00:35:36.467Z,14.00
2023-03-18T00:38:07.672Z,14.90
2023-03-18T00:40:55.625Z,14.67
2023-03-18T00:43:29.437Z,13.90
2023-03-18T00:45:57.683Z,15.00
2023-03-18T00:48:25.473Z,14.90
2023-03-18T00:50:56.770Z,15.40
2023-03-18T00:53:26.195Z,13.17
2023-03-18T00:55:53.886Z,13.97
2023-03-18T00:58:21.183Z,13.70
2023-03-18T01:00:48.689Z,14.23
2023-03-18T01:03:17.747Z,14.60
2023-03-18T01:05:45.335Z,14.03
2023-03-18T01:08:12.601Z,14.43
2023-03-18T01:10:39.954Z,15.07
2023-03-18T01:13:08.059Z,13.90
2023-03-18T01:15:35.792Z,13.77
2023-03-18T01:18:05.042Z,14.00
2023-03-18T01:20:32.412Z,13.20
2023-03-18T01:23:00.821Z,14.23
2023-03-18T01:25:28.760Z,14.07
2023-03-18T01:27:55.969Z,14.40
2023-03-18T01:30:23.863Z,14.50
2023-03-18T01:32:51.551Z,13.17
2023-03-18T01:35:20.138Z,14.77
2023-03-18T01:37:47.344Z,15.87
2023-03-18T01:40:16.126Z,14.20
2023-03-18T01:42:45.411Z,15.20
2023-03-18T01:45:19.540Z,14.10
2023-03-18T01:47:47.268Z,14.37
2023-03-18T01:50:16.801Z,13.63
2023-03-18T01:52:45.611Z,14.70
2023-03-18T01:55:19.275Z,14.60
2023-03-18T01:57:47.625Z,14.20
2023-03-18T02:00:16.548Z,14.67
2023-03-18T02:02:45.259Z,12.87
2023-03-18T02:05:13.397Z,13.37
2023-03-18T02:07:42.813Z,13.70
2023-03-18T02:10:12.435Z,13.40
2023-03-18T02:12:40.967Z,12.57
2023-03-18T02:15:11.486Z,13.43
2023-03-18T02:17:41.953Z,13.33
2023-03-18T02:20:34.289Z,12.97
2023-03-18T02:23:24.288Z,13.10
2023-03-18T02:25:54.642Z,11.53
2023-03-18T02:28:26.301Z,12.80
2023-03-18T02:30:55.870Z,11.93
2023-03-18T02:33:25.024Z,11.50
2023-03-18T02:35:54.159Z,12.27
2023-03-18T02:38:22.988Z,11.80
2023-03-18T02:40:50.361Z,11.77
2023-03-18T02:43:31.525Z,11.13
2023-03-18T02:46:05.472Z,12.13
2023-03-18T02:48:35.278Z,12.13
2023-03-18T02:51:03.275Z,11.93
2023-03-18T02:53:30.589Z,10.50
2023-03-18T02:55:58.215Z,11.27
2023-03-18T02:58:26.003Z,10.53
2023-03-18T03:00:53.524Z,10.90
2023-03-18T03:03:21.348Z,11.47
2023-03-18T03:05:48.731Z,9.93
2023-03-18T03:08:16.283Z,10.23
2023-03-18T03:10:43.641Z,10.77
2023-03-18T03:13:11.638Z,10.10
2023-03-18T03:15:39.419Z,9.83
2023-03-18T03:18:07.287Z,10.53
2023-03-18T03:20:35.701Z,9.53
2023-03-18T03:23:03.548Z,10.13
2023-03-18T03:25:30.917Z,9.63
2023-03-18T03:27:58.391Z,9.80
2023-03-18T03:30:26.337Z,10.67
2023-03-18T03:32:53.601Z,10.23
2023-03-18T03:35:21.499Z,11.13
2023-03-18T03:37:48.754Z,11.47
2023-03-18T03:40:18.086Z,11.43
2023-03-18T03:42:45.634Z,11.73
2023-03-18T03:45:14.027Z,12.17
2023-03-18T03:47:41.714Z,11.17
2023-03-18T03:50:10.466Z,12.13
2023-03-18T03:52:38.997Z,12.00
2023-03-18T03:55:09.586Z,11.37
2023-03-18T03:57:37.219Z,11.30
2023-03-18T04:00:05.568Z,11.13
2023-03-18T04:02:32.757Z,11.60
2023-03-18T04:05:00.364Z,12.80
2023-03-18T04:07:27.865Z,11.63
2023-03-18T04:09:56.091Z,12.27
2023-03-18T04:12:23.488Z,10.80
2023-03-18T04:14:51.866Z,11.33
2023-03-18T04:17:19.168Z,13.20
2023-03-18T04:19:46.340Z,12.50
2023-03-18T04:22:13.528Z,11.67
2023-03-18T04:24:40.904Z,11.23
2023-03-18T04:27:08.130Z,12.33
2023-03-18T04:29:35.333Z,11.27
2023-03-18T04:32:02.495Z,11.00
2023-03-18T04:34:29.736Z,11.50
2023-03-18T04:36:56.935Z,10.80
2023-03-18T04:39:24.119Z,9.70
2023-03-18T04:41:51.862Z,10.47
2023-03-18T04:44:19.328Z,10.57
2023-03-18T04:46:46.570Z,11.30
2023-03-18T04:49:13.766Z,10.77
2023-03-18T04:51:41.093Z,8.90
2023-03-18T04:54:08.324Z,9.63
2023-03-18T04:56:35.793Z,9.50
2023-03-18T04:59:03.002Z,8.57
2023-03-18T05:01:30.221Z,9.13
2023-03-18T05:03:57.490Z,8.47
2023-03-18T05:06:27.093Z,8.23
2023-03-18T05:08:54.696Z,8.27
2023-03-18T05:11:21.915Z,8.07
2023-03-18T05:13:49.213Z,9.03
2023-03-18T05:16:16.481Z,8.77
2023-03-18T05:18:44.718Z,8.43
2023-03-18T05:21:11.987Z,8.10
2023-03-18T05:23:39.572Z,8.57
2023-03-18T05:26:06.809Z,8.30
2023-03-18T05:28:34.579Z,8.97
2023-03-18T05:31:01.812Z,7.73
2023-03-18T05:33:29.666Z,8.60
2023-03-18T05:35:57.138Z,7.50
2023-03-18T05:38:24.443Z,7.93
2023-03-18T05:40:51.985Z,7.90
2023-03-18T05:43:20.193Z,7.80
2023-03-18T05:45:47.497Z,7.33
2023-03-18T05:48:14.752Z,7.57
2023-03-18T05:50:42.646Z,7.23
2023-03-18T05:53:11.718Z,7.93
2023-03-18T05:55:40.404Z,7.87
2023-03-18T05:58:07.846Z,8.17
2023-03-18T06:00:35.199Z,7.40
2023-03-18T06:03:02.927Z,7.53
2023-03-18T06:05:31.538Z,7.07
2023-03-18T06:07:59.476Z,7.03
2023-03-18T06:10:27.076Z,7.27
2023-03-18T06:12:56.004Z,6.87
2023-03-18T06:15:24.476Z,6.73
2023-03-18T06:17:52.846Z,7.03
2023-03-18T06:20:20.221Z,7.97
2023-03-18T06:22:49.917Z,7.43
2023-03-18T06:25:21.051Z,6.67
2023-03-18T06:27:48.317Z,7.47
2023-03-18T06:30:16.156Z,6.40
2023-03-18T06:32:43.952Z,7.17
2023-03-18T06:35:12.168Z,6.83
2023-03-18T06:37:40.143Z,6.37
2023-03-18T06:40:08.304Z,7.37
2023-03-18T06:42:35.794Z,7.73
2023-03-18T06:45:03.162Z,7.30
2023-03-18T06:47:30.644Z,6.87
2023-03-18T06:49:58.127Z,7.50
2023-03-18T06:52:25.480Z,7.33
2023-03-18T06:54:53.483Z,6.93
2023-03-18T06:57:21.155Z,8.57
2023-03-18T06:59:48.355Z,8.63
2023-03-18T07:02:15.700Z,7.83
2023-03-18T07:04:43.255Z,7.57
2023-03-18T07:07:13.948Z,8.67
2023-03-18T07:09:41.193Z,8.17
2023-03-18T07:12:08.528Z,8.13
2023-03-18T07:14:35.770Z,9.00
2023-03-18T07:17:03.943Z,8.57
2023-03-18T07:19:33.196Z,12.43
2023-03-18T07:22:00.758Z,11.10
2023-03-18T07:24:28.505Z,9.93
2023-03-18T07:26:55.730Z,7.90
2023-03-18T07:29:23.398Z,7.13
2023-03-18T07:31:51.314Z,7.07
2023-03-18T07:34:19.291Z,8.30
2023-03-18T07:36:46.939Z,7.20
2023-03-18T07:39:14.188Z,7.57
2023-03-18T07:41:41.391Z,7.93
2023-03-18T07:44:08.596Z,8.03
2023-03-18T07:46:35.977Z,8.23
2023-03-18T07:49:03.285Z,7.13
2023-03-18T07:51:30.805Z,6.13
2023-03-18T07:53:59.209Z,7.13
2023-03-18T07:56:27.218Z,5.40
2023-03-18T07:58:54.402Z,6.10
2023-03-18T08:01:21.651Z,5.80
2023-03-18T08:03:48.894Z,6.03
2023-03-18T08:06:18.104Z,6.50
2023-03-18T08:08:46.766Z,6.20
2023-03-18T08:11:14.798Z,7.00
2023-03-18T08:13:42.018Z,6.70
2023-03-18T08:16:09.405Z,7.00
2023-03-18T08:18:36.799Z,6.30
2023-03-18T08:21:04.072Z,6.20
2023-03-18T08:23:31.335Z,6.60
2023-03-18T08:25:59.357Z,6.00
2023-03-18T08:28:27.384Z,5.83
2023-03-18T08:30:55.887Z,6.10
2023-03-18T08:33:23.596Z,6.33
2023-03-18T08:35:52.085Z,6.13
2023-03-18T08:38:19.684Z,6.43
2023-03-18T08:40:47.428Z,6.37
2023-03-18T08:43:14.794Z,5.93
2023-03-18T08:45:42.406Z,6.13
2023-03-18T08:48:09.786Z,6.63
2023-03-18T08:50:37.348Z,6.13
2023-03-18T08:53:04.685Z,6.50
2023-03-18T08:55:37.310Z,6.53
2023-03-18T08:58:05.863Z,6.40
2023-03-18T09:00:33.963Z,6.20
2023-03-18T09:03:01.740Z,6.70
2023-03-18T09:05:30.430Z,6.03
2023-03-18T09:07:58.819Z,6.67
2023-03-18T09:10:26.404Z,6.70
2023-03-18T09:12:53.833Z,6.00
2023-03-18T09:15:21.068Z,5.57
2023-03-18T09:18:03.838Z,5.90
2023-03-18T09:20:36.477Z,6.30
2023-03-18T09:23:15.566Z,6.63
2023-03-18T09:26:03.749Z,6.97
2023-03-18T09:28:48.801Z,8.80
2023-03-18T09:31:22.099Z,6.67
2023-03-18T09:33:49.680Z,6.47
2023-03-18T09:36:25.568Z,6.50
2023-03-18T09:38:52.934Z,5.77
2023-03-18T09:41:43.180Z,6.30
2023-03-18T09:44:53.499Z,6.13
2023-03-18T09:47:34.238Z,5.90
2023-03-18T09:52:53.823Z,6.30
2023-03-18T09:58:45.074Z,6.20
2023-03-18T10:01:23.360Z,6.03
2023-03-18T10:04:12.113Z,6.23
2023-03-18T10:07:10.604Z,6.63
2023-03-18T10:10:35.644Z,5.37
2023-03-18T10:16:13.080Z,6.60
2023-03-18T10:18:43.330Z,6.43
2023-03-18T10:21:19.842Z,6.23
2023-03-18T10:24:04.561Z,6.23
2023-03-18T10:26:33.452Z,6.97
2023-03-18T10:29:13.478Z,5.97
2023-03-18T10:31:55.971Z,6.37
2023-03-18T10:34:24.746Z,6.70
2023-03-18T10:37:15.177Z,6.63
2023-03-18T10:39:42.758Z,6.20
2023-03-18T10:42:30.274Z,6.40
2023-03-18T10:45:04.874Z,6.40
2023-03-18T10:47:35.009Z,7.40
2023-03-18T10:50:02.205Z,6.80
2023-03-18T10:52:46.484Z,6.60
2023-03-18T10:55:15.837Z,6.47
2023-03-18T10:57:43.096Z,6.30
2023-03-18T11:00:26.698Z,6.30
2023-03-18T11:02:54.793Z,6.43
2023-03-18T11:05:21.972Z,6.90
2023-03-18T11:07:58.907Z,6.13
2023-03-18T11:10:28.207Z,5.90
2023-03-18T11:13:00.168Z,6.80
2023-03-18T11:15:27.417Z,6.05
2023-03-18T11:17:58.756Z,6.10
2023-03-18T11:20:47.767Z,6.50
2023-03-18T11:23:19.432Z,5.50
2023-03-18T11:25:49.615Z,6.43
2023-03-18T11:28:27.121Z,5.82
2023-03-18T11:30:56.945Z,5.88
2023-03-18T11:33:24.906Z,6.78
2023-03-18T11:35:56.226Z,6.18
2023-03-18T11:38:28.789Z,6.50
2023-03-18T11:41:15.296Z,6.20
2023-03-18T11:43:55.917Z,6.43
2023-03-18T11:46:24.942Z,6.20
2023-03-18T11:48:52.298Z,6.35
2023-03-18T11:51:40.375Z,6.20
2023-03-18T11:54:07.858Z,5.68
2023-03-18T11:56:47.600Z,5.85
2023-03-18T11:59:21.043Z,6.30
2023-03-18T12:01:48.401Z,6.82
2023-03-18T12:04:34.731Z,6.40
2023-03-18T12:07:20.754Z,6.30
2023-03-18T12:10:10.647Z,6.65
2023-03-18T12:12:47.625Z,6.13
2023-03-18T12:15:21.871Z,5.82
2023-03-18T12:18:02.120Z,6.05
2023-03-18T12:20:34.861Z,5.68
2023-03-18T12:23:04.190Z,5.57
2023-03-18T12:25:46.675Z,5.82
2023-03-18T12:28:20.776Z,5.78
2023-03-18T12:30:49.420Z,6.47
2023-03-18T12:33:19.963Z,6.22
2023-03-18T12:35:59.608Z,6.22
2023-03-18T12:38:32.884Z,6.43
2023-03-18T12:41:00.200Z,5.72
2023-03-18T12:43:27.395Z,6.07
2023-03-18T12:45:58.890Z,6.25
2023-03-18T12:48:44.360Z,6.55
2023-03-18T12:51:22.027Z,5.97
2023-03-18T12:53:51.138Z,6.53
2023-03-18T12:56:21.663Z,6.30
2023-03-18T12:58:51.145Z,6.68
2023-03-18T13:01:22.277Z,6.63
2023-03-18T13:03:52.678Z,6.47
2023-03-18T13:06:20.302Z,6.63
2023-03-18T13:08:55.682Z,7.13
2023-03-18T13:11:32.687Z,6.25
2023-03-18T13:14:01.892Z,7.05
2023-03-18T13:16:29.366Z,6.95
2023-03-18T13:18:58.264Z,6.90
2023-03-18T13:21:27.159Z,6.63
2023-03-18T13:24:04.085Z,7.03
2023-03-18T13:26:50.290Z,7.00
2023-03-18T13:29:25.169Z,6.20
2023-03-18T13:31:55.181Z,7.45
2023-03-18T13:34:26.513Z,7.28
2023-03-18T13:37:00.039Z,7.35
2023-03-18T13:39:27.303Z,7.15
2023-03-18T13:42:30.380Z,6.85
2023-03-18T13:45:00.699Z,6.25
2023-03-18T13:47:30.789Z,7.03
2023-03-18T13:50:25.395Z,6.50
2023-03-18T13:52:55.320Z,7.30
2023-03-18T13:55:28.804Z,7.13
2023-03-18T13:57:57.696Z,6.70
2023-03-18T14:00:31.078Z,7.65
2023-03-18T14:03:24.915Z,7.10
2023-03-18T14:05:54.288Z,7.00
2023-03-18T14:08:39.678Z,6.85
2023-03-18T14:11:23.247Z,7.75
2023-03-18T14:13:52.707Z,8.95
2023-03-18T14:16:28.577Z,7.70
2023-03-18T14:19:01.915Z,7.63
2023-03-18T14:21:30.318Z,7.30
2023-03-18T14:24:22.469Z,7.10
2023-03-18T14:26:50.410Z,7.35
2023-03-18T14:29:25.274Z,7.68
2023-03-18T14:32:08.358Z,8.88
2023-03-18T14:34:53.437Z,7.38
2023-03-18T14:37:29.338Z,7.38
2023-03-18T14:40:06.211Z,6.60
2023-03-18T14:42:42.072Z,7.57
2023-03-18T14:45:19.392Z,7.18
2023-03-18T14:47:49.172Z,7.53
2023-03-18T14:50:19.105Z,7.05
2023-03-18T14:52:51.156Z,8.05
2023-03-18T14:55:31.361Z,7.95
2023-03-18T14:57:58.963Z,8.95
2023-03-18T15:00:26.454Z,9.55
2023-03-18T15:03:01.040Z,10.20
2023-03-18T15:05:32.440Z,9.02
2023-03-18T15:08:00.275Z,9.05
2023-03-18T15:10:30.152Z,9.40
2023-03-18T15:13:26.997Z,11.00
2023-03-18T15:15:56.434Z,9.02
2023-03-18T15:18:26.762Z,9.48
2023-03-18T15:21:14.186Z,9.20
2023-03-18T15:23:43.163Z,8.85
2023-03-18T15:26:16.927Z,10.57
2023-03-18T15:28:47.410Z,11.20
2023-03-18T15:31:24.528Z,10.00
2023-03-18T15:34:11.996Z,10.32
2023-03-18T15:36:43.164Z,11.60
2023-03-18T15:39:30.753Z,13.18
2023-03-18T15:41:58.633Z,19.60
2023-03-18T15:44:33.499Z,20.95
2023-03-18T15:47:07.628Z,22.10
2023-03-18T15:49:43.599Z,17.60
2023-03-18T15:52:11.093Z,18.58
2023-03-18T15:54:41.841Z,15.38
2023-03-18T15:57:13.653Z,14.95
2023-03-18T15:59:41.392Z,14.20
2023-03-18T16:02:18.386Z,14.90
2023-03-18T16:04:46.748Z,13.20
2023-03-18T16:07:18.348Z,12.82
2023-03-18T16:09:45.862Z,13.57
2023-03-18T16:12:13.154Z,13.00
2023-03-18T16:14:42.122Z,14.52
2023-03-18T16:17:12.923Z,15.80
2023-03-18T16:19:40.318Z,17.67
2023-03-18T16:22:07.903Z,19.67
2023-03-18T16:24:35.342Z,19.48
2023-03-18T16:27:03.878Z,18.80
2023-03-18T16:29:32.841Z,17.65
2023-03-18T16:32:00.807Z,17.92
2023-03-18T16:34:28.742Z,20.30
2023-03-18T16:36:56.182Z,32.95
2023-03-18T16:39:24.658Z,35.65
2023-03-18T16:41:52.702Z,49.03
2023-03-18T16:44:23.749Z,65.22
2023-03-18T16:46:53.802Z,67.55
2023-03-18T16:49:23.533Z,78.32
2023-03-18T16:51:51.789Z,82.97
2023-03-18T16:54:21.727Z,82.50
2023-03-18T16:56:51.394Z,76.03
2023-03-18T16:59:19.108Z,63.67
2023-03-18T17:01:46.993Z,59.72
2023-03-18T17:04:23.894Z,53.78
2023-03-18T17:06:52.386Z,58.90
2023-03-18T17:09:20.485Z,69.18
2023-03-18T17:11:51.290Z,81.22
2023-03-18T17:14:37.917Z,62.78
2023-03-18T17:17:07.132Z,53.63
2023-03-18T17:19:36.054Z,53.72
2023-03-18T17:22:03.519Z,55.15
2023-03-18T17:24:31.259Z,53.95
2023-03-18T17:26:58.572Z,77.30
2023-03-18T17:29:26.902Z,100.38
2023-03-18T17:31:54.789Z,90.40
2023-03-18T17:34:22.757Z,77.55
2023-03-18T17:36:50.352Z,65.73
2023-03-18T17:39:33.026Z,61.53
2023-03-18T17:42:04.500Z,58.42
2023-03-18T17:44:31.774Z,59.00
2023-03-18T17:46:59.079Z,58.70
2023-03-18T17:49:28.861Z,57.77
2023-03-18T17:51:56.874Z,65.53
2023-03-18T17:54:27.386Z,118.17
2023-03-18T17:56:54.697Z,199.53
2023-03-18T17:59:22.212Z,271.47
2023-03-18T18:01:58.480Z,317.00
2023-03-18T18:04:26.190Z,279.30
2023-03-18T18:06:54.387Z,285.67
2023-03-18T18:09:22.057Z,260.07
2023-03-18T18:11:50.816Z,236.83
2023-03-18T18:14:31.766Z,147.37
2023-03-18T18:16:59.660Z,104.70
2023-03-18T18:19:27.088Z,86.73
2023-03-18T18:21:54.942Z,79.37
2023-03-18T18:24:31.569Z,88.27
2023-03-18T18:26:58.806Z,82.60
2023-03-18T18:29:28.539Z,85.93
2023-03-18T18:31:55.871Z,78.50
2023-03-18T18:34:23.048Z,74.03
2023-03-18T18:36:51.034Z,121.27
2023-03-18T18:39:18.268Z,108.23
2023-03-18T18:41:46.444Z,100.73
2023-03-18T18:44:13.906Z,84.97
2023-03-18T18:46:41.299Z,81.83
2023-03-18T18:49:18.487Z,80.60
2023-03-18T18:51:46.700Z,77.37
2023-03-18T18:54:14.077Z,85.93
2023-03-18T18:56:43.846Z,93.47
2023-03-18T18:59:24.750Z,87.57
2023-03-18T19:01:52.154Z,86.03
2023-03-18T19:04:21.849Z,96.00
2023-03-18T19:06:52.804Z,108.07
2023-03-18T19:09:22.011Z,106.47
2023-03-18T19:11:50.200Z,114.80
2023-03-18T19:14:18.024Z,134.50
2023-03-18T19:16:45.342Z,150.10
2023-03-18T19:19:16.556Z,155.17
2023-03-18T19:21:43.848Z,159.97
2023-03-18T19:24:30.998Z,142.63
2023-03-18T19:26:59.459Z,129.27
2023-03-18T19:29:27.017Z,115.83
2023-03-18T19:31:54.666Z,107.23
2023-03-18T19:34:23.196Z,102.33
2023-03-18T19:36:53.394Z,93.30
2023-03-18T19:39:22.392Z,84.10
2023-03-18T19:41:49.808Z,83.30
2023-03-18T19:44:21.680Z,80.90
2023-03-18T19:46:49.506Z,81.03
2023-03-18T19:49:26.309Z,78.60
2023-03-18T19:51:54.041Z,81.33
2023-03-18T19:54:34.424Z,83.67
2023-03-18T19:57:13.002Z,82.60
2023-03-18T19:59:41.164Z,81.00
2023-03-18T20:02:19.966Z,77.30
2023-03-18T20:04:49.282Z,80.33
2023-03-18T20:07:17.487Z,80.57
2023-03-18T20:09:45.169Z,81.40
2023-03-18T20:12:31.213Z,82.07
2023-03-18T20:14:58.389Z,83.10
2023-03-18T20:17:30.470Z,85.90
2023-03-18T20:19:57.849Z,99.80
2023-03-18T20:22:35.716Z,101.37
2023-03-18T20:25:03.541Z,109.50
2023-03-18T20:27:31.543Z,113.53
2023-03-18T20:29:59.089Z,123.40
2023-03-18T20:32:26.581Z,119.63
2023-03-18T20:34:53.762Z,126.07
2023-03-18T20:37:22.972Z,120.83
2023-03-18T20:39:50.587Z,118.87
2023-03-18T20:42:18.164Z,110.50
2023-03-18T20:44:46.295Z,103.43
2023-03-18T20:47:14.061Z,95.33
2023-03-18T20:49:44.584Z,92.73
2023-03-18T20:52:24.325Z,83.70
2023-03-18T20:54:51.949Z,83.30
2023-03-18T20:57:19.420Z,76.03
2023-03-18T20:59:47.250Z,72.80
2023-03-18T21:02:31.454Z,74.13
2023-03-18T21:04:59.164Z,74.03
2023-03-18T21:07:27.410Z,70.07
2023-03-18T21:09:54.819Z,71.43
2023-03-18T21:12:22.856Z,73.90
2023-03-18T21:14:50.660Z,73.37
2023-03-18T21:17:21.997Z,73.40
2023-03-18T21:19:49.842Z,66.63
2023-03-18T21:22:21.758Z,64.23
2023-03-18T21:24:49.583Z,63.13
2023-03-18T21:27:26.060Z,62.30
2023-03-18T21:29:54.027Z,62.43
2023-03-18T21:32:34.404Z,65.97
2023-03-18T21:35:01.615Z,65.33
2023-03-18T21:37:28.793Z,68.77
2023-03-18T21:39:56.311Z,83.13
2023-03-18T21:42:28.051Z,80.80
2023-03-18T21:44:56.602Z,71.03
2023-03-18T21:47:25.088Z,66.53
2023-03-18T21:49:52.543Z,60.50
2023-03-18T21:52:22.782Z,59.37
2023-03-18T21:54:50.085Z,57.93
2023-03-18T21:57:22.060Z,54.17
2023-03-18T21:59:49.664Z,52.93
2023-03-18T22:02:27.660Z,55.27
2023-03-18T22:04:56.933Z,53.90
2023-03-18T22:07:24.931Z,56.33
2023-03-18T22:09:52.412Z,59.13
2023-03-18T22:12:26.698Z,56.93
2023-03-18T22:14:54.223Z,59.80
2023-03-18T22:17:21.492Z,59.80
2023-03-18T22:19:48.931Z,57.97
2023-03-18T22:22:17.420Z,57.00
2023-03-18T22:24:45.098Z,66.47
2023-03-18T22:27:22.736Z,89.73
2023-03-18T22:29:51.037Z,96.10
2023-03-18T22:32:33.601Z,85.33
2023-03-18T22:35:00.884Z,66.97
2023-03-18T22:37:28.145Z,61.50
2023-03-18T22:39:55.393Z,57.20
2023-03-18T22:42:24.314Z,60.63
2023-03-18T22:44:51.764Z,64.33
2023-03-18T22:47:23.147Z,66.03
2023-03-18T22:49:51.062Z,65.73
2023-03-18T22:52:21.336Z,60.20
2023-03-18T22:54:49.392Z,59.57
2023-03-18T22:57:18.622Z,58.13
2023-03-18T22:59:46.033Z,58.70
2023-03-18T23:02:18.381Z,54.90
2023-03-18T23:04:47.702Z,58.33
2023-03-18T23:07:34.192Z,68.20
2023-03-18T23:10:03.055Z,69.50
2023-03-18T23:12:32.842Z,60.43
2023-03-18T23:15:00.147Z,59.67
2023-03-18T23:17:28.043Z,57.83
2023-03-18T23:19:55.838Z,60.90
2023-03-18T23:22:25.759Z,64.37
2023-03-18T23:24:53.093Z,75.97
2023-03-18T23:27:21.127Z,74.60
2023-03-18T23:29:48.616Z,68.87
2023-03-18T23:32:16.496Z,62.23
2023-03-18T23:34:44.011Z,57.00
2023-03-18T23:37:11.539Z,59.17
2023-03-18T23:39:46.431Z,63.47
2023-03-18T23:42:17.961Z,63.97
2023-03-18T23:44:45.192Z,65.17
2023-03-18T23:47:13.229Z,64.20
2023-03-18T23:49:40.975Z,59.40
2023-03-18T23:52:09.564Z,60.23
2023-03-18T23:54:36.952Z,60.37
2023-03-18T23:57:04.998Z,57.20
2023-03-18T23:59:32.589Z,59.43
